Data for 10/23/2009

Time Sea-Level Adjusted Pressure Absolute Pressure Temperature Relative Humidity Dew Point   
(mb) (inHg) (mb) (inHg) (C) (F) (%) (C) (F)
00:05 1021 30.15 850 25.1 4.6 40.3 66 -1.2 29.8
00:10 1021 30.15 850 25.1 4.2 39.5 68 -1.2 29.8
00:15 1021 30.15 850 25.1 4.1 39.4 68 -1.3 29.7
00:20 1021 30.15 850 25.1 4.1 39.4 67 -1.5 29.3
00:25 1021 30.15 850 25.1 4.3 39.7 65 -1.6 29
00:30 1021 30.15 850 25.1 4.5 40.2 64 -1.7 29
00:35 1021 30.15 850 25.1 4.5 40.1 67 -1 30.2
00:40 1021 30.15 850 25.1 3.9 39.1 70 -1.1 30.1
00:45 1021 30.15 850 25.1 3.4 38 73 -1.1 30
00:50 1021 30.15 850 25.1 3 37.4 74 -1.1 29.9
00:55 1021 30.15 850 25.1 2.9 37.1 73 -1.5 29.4
01:00 1021 30.15 850 25.1 2.8 37 75 -1.3 29.7
01:05 1021 30.15 850 25.1 2.5 36.6 76 -1.2 29.8
01:10 1021 30.15 850 25.1 2.5 36.4 75 -1.5 29.4
01:15 1021 30.15 850 25.1 2.4 36.3 75 -1.5 29.3
01:20 1021 30.15 850 25.1 2.3 36.1 75 -1.6 29.1
01:25 1021 30.15 850 25.1 2.1 35.8 77 -1.5 29.3
01:30 1020 30.12 850 25.1 1.8 35.3 79 -1.5 29.3
01:35 1020 30.12 850 25.1 1.6 34.9 79 -1.6 29.2
01:40 1020 30.12 850 25.1 1 33.9 82 -1.7 29
01:45 1020 30.12 850 25.1 0.9 33.5 82 -1.9 28.6
01:50 1021 30.15 850 25.1 1.2 34.2 80 -1.9 28.6
01:55 1021 30.15 850 25.1 1.6 34.8 78 -2 28.5
02:00 1021 30.15 850 25.1 1.8 35.3 75 -2.1 28.3
02:05 1021 30.15 850 25.1 2.1 35.7 74 -2.1 28.3
02:10 1021 30.15 850 25.1 2.1 35.8 74 -2 28.4
02:15 1021 30.15 850 25.1 2.1 35.8 74 -2.1 28.2
02:20 1021 30.15 850 25.1 2 35.7 74 -2 28.3
02:25 1021 30.15 850 25.1 2 35.6 75 -2 28.4
02:30 1021 30.15 850 25.1 1.9 35.3 75 -2.1 28.3
02:35 1021 30.15 850 25.1 2 35.5 75 -2.1 28.3
02:40 1021 30.15 850 25.1 1.8 35.2 76 -2.1 28.3
02:45 1021 30.15 850 25.1 1.4 34.6 78 -2.1 28.3
02:50 1021 30.15 850 25.1 1.2 34.1 79 -2.1 28.3
02:55 1021 30.15 850 25.1 1 33.9 80 -2.1 28.3
03:00 1021 30.15 850 25.1 1 33.8 80 -2 28.4
03:05 1021 30.15 850 25.1 1.1 34 79 -2.2 28.1
03:10 1021 30.15 850 25.1 1.4 34.5 77 -2.3 27.9
03:15 1021 30.15 850 25.1 1.5 34.7 77 -2.2 28.1
03:20 1021 30.15 850 25.1 1.4 34.4 77 -2.2 28
03:25 1021 30.15 850 25.1 1.3 34.3 77 -2.3 27.8
03:30 1020 30.12 850 25.1 1 33.9 78 -2.3 27.8
03:35 1020 30.12 850 25.1 1 33.8 78 -2.4 27.7
03:40 1020 30.12 850 25.1 0.9 33.6 79 -2.3 27.8
03:45 1020 30.12 850 25.1 1 33.8 78 -2.4 27.6
03:50 1020 30.12 849 25.07 1.1 33.9 78 -2.4 27.7
03:55 1020 30.12 849 25.07 0.9 33.7 79 -2.4 27.8
04:00 1020 30.12 849 25.07 0.7 33.3 80 -2.3 27.9
04:05 1020 30.12 849 25.07 0.6 33.2 81 -2.3 27.9
04:10 1020 30.12 849 25.07 0.5 32.9 81 -2.3 27.8
04:15 1020 30.12 849 25.07 0.5 32.9 81 -2.4 27.7
04:20 1020 30.12 849 25.07 0.5 32.8 81 -2.5 27.6
04:25 1020 30.12 849 25.07 0.5 32.8 81 -2.5 27.5
04:30 1020 30.12 849 25.07 0.6 33 80 -2.5 27.4
04:35 1020 30.12 849 25.07 0.8 33.5 79 -2.5 27.5
04:40 1019 30.09 849 25.07 1 33.8 78 -2.4 27.7
04:45 1019 30.09 849 25.07 1.2 34.1 77 -2.4 27.7
04:50 1019 30.09 849 25.07 1.2 34.2 78 -2.3 27.9
04:55 1019 30.09 848 25.04 1 33.8 78 -2.3 27.8
05:00 1019 30.09 848 25.04 0.9 33.6 79 -2.4 27.7
05:05 1019 30.09 848 25.04 0.8 33.5 79 -2.4 27.6
05:10 1019 30.09 848 25.04 0.9 33.6 78 -2.4 27.6
05:15 1019 30.09 849 25.07 0.8 33.5 78 -2.5 27.4
05:20 1019 30.09 849 25.07 0.7 33.3 79 -2.6 27.4
05:25 1019 30.09 849 25.07 0.7 33.3 78 -2.7 27.2
05:30 1019 30.09 849 25.07 0.7 33.3 78 -2.7 27.1
05:35 1019 30.09 849 25.07 0.7 33.3 78 -2.8 27
05:40 1019 30.09 849 25.07 0.7 33.3 78 -2.7 27.2
05:45 1019 30.09 849 25.07 0.5 32.9 79 -2.7 27.2
05:50 1019 30.09 849 25.07 0.7 33.2 77 -2.9 26.9
05:55 1019 30.09 849 25.07 1.3 34.4 75 -2.6 27.2
06:00 1020 30.12 849 25.07 1.3 34.3 76 -2.6 27.4
06:05 1020 30.12 849 25.07 1.1 34 75 -2.7 27.1
06:10 1020 30.12 849 25.07 1.1 33.9 76 -2.7 27.2
06:15 1019 30.09 849 25.07 1 33.8 76 -2.7 27.1
06:20 1019 30.09 849 25.07 0.7 33.3 77 -2.8 27
06:25 1019 30.09 849 25.07 0.8 33.4 77 -2.8 27
06:30 1019 30.09 849 25.07 0.7 33.2 78 -2.8 27
06:35 1019 30.09 849 25.07 0.6 33 79 -2.7 27.1
06:40 1019 30.09 849 25.07 0.5 33 78 -2.8 27
06:45 1019 30.09 849 25.07 0.5 32.9 78 -2.8 26.9
06:50 1019 30.09 849 25.07 0.6 33.2 78 -2.7 27.1
06:55 1019 30.09 848 25.04 0.7 33.2 78 -2.8 27
07:00 1019 30.09 848 25.04 0.6 33.1 79 -2.7 27.1
07:05 1019 30.09 848 25.04 0.4 32.6 80 -2.6 27.2
07:10 1019 30.09 848 25.04 0.3 32.6 80 -2.8 27
07:15 1019 30.09 848 25.04 0.4 32.8 79 -2.7 27.1
07:20 1019 30.09 848 25.04 0.4 32.7 79 -2.8 27
07:25 1019 30.09 848 25.04 0.1 32.3 81 -2.7 27.1
07:30 1019 30.09 848 25.04 -0.2 31.7 82 -2.9 26.8
07:35 1018 30.06 848 25.04 -0.4 31.3 83 -3 26.7
07:40 1018 30.06 848 25.04 -0.5 31.1 83 -3 26.5
07:45 1018 30.06 848 25.04 -0.2 31.7 81 -3 26.6
07:50 1018 30.06 848 25.04 0.2 32.4 79 -3 26.6
07:55 1018 30.06 848 25.04 0.3 32.6 78 -3 26.6
08:00 1018 30.06 848 25.04 0.2 32.3 80 -2.9 26.8
08:05 1018 30.06 848 25.04 0.5 32.8 77 -3.1 26.4
08:10 1018 30.06 848 25.04 0.6 33 78 -2.8 27
08:15 1019 30.09 848 25.04 0.4 32.7 79 -2.9 26.8
08:20 1019 30.09 848 25.04 0.5 32.8 78 -2.9 26.8
08:25 1019 30.09 848 25.04 0.9 33.5 76 -2.9 26.7
08:30 1019 30.09 848 25.04 1.3 34.3 77 -2.4 27.6
08:35 1019 30.09 848 25.04 1.7 35 70 -3.2 26.2
08:40 1019 30.09 848 25.04 2.2 35.9 68 -3 26.5
08:45 1019 30.09 848 25.04 2 35.7 70 -2.8 26.9
08:50 1019 30.09 848 25.04 2.1 35.7 71 -2.7 27.1
08:55 1019 30.09 848 25.04 1.8 35.2 70 -3 26.6
09:00 1019 30.09 848 25.04 2 35.6 70 -2.9 26.7
09:05 1019 30.09 848 25.04 1.9 35.4 71 -2.8 26.9
09:10 1019 30.09 848 25.04 1.8 35.3 72 -2.6 27.3
09:15 1019 30.09 848 25.04 1.7 35.1 73 -2.6 27.4
09:20 1019 30.09 848 25.04 1.5 34.8 75 -2.4 27.6
09:25 1019 30.09 848 25.04 1.6 34.8 76 -2.3 27.9
09:30 1019 30.09 848 25.04 1.8 35.2 75 -2.2 28.1
09:35 1019 30.09 848 25.04 1.9 35.4 75 -2.1 28.3
09:40 1019 30.09 848 25.04 2.1 35.8 76 -1.7 28.9
09:45 1019 30.09 848 25.04 2.2 36 75 -1.7 29
09:50 1019 30.09 848 25.04 2.2 36 73 -2.2 28.1
09:55 1019 30.09 848 25.04 2.2 35.9 74 -2 28.4
10:00 1018 30.06 848 25.04 2.4 36.3 72 -2.1 28.2
10:05 1019 30.09 848 25.04 2.5 36.5 74 -1.7 29
10:10 1018 30.06 848 25.04 2.9 37.2 71 -1.8 28.7
10:15 1018 30.06 848 25.04 3 37.5 71 -1.8 28.8
10:20 1018 30.06 848 25.04 3.1 37.7 71 -1.6 29
10:25 1018 30.06 848 25.04 3.2 37.8 71 -1.6 29.2
10:30 1018 30.06 848 25.04 3.4 38.2 69 -1.7 29
10:35 1018 30.06 847 25.01 3.5 38.2 70 -1.5 29.3
10:40 1018 30.06 847 25.01 3.7 38.6 68 -1.7 28.9
10:45 1018 30.06 847 25.01 4 39.2 67 -1.5 29.3
10:50 1018 30.06 847 25.01 4.6 40.2 67 -1.1 30
10:55 1018 30.06 847 25.01 4.9 40.8 65 -1.2 29.8
11:00 1018 30.06 847 25.01 5.6 42.1 63 -1 30.3
11:05 1018 30.06 847 25.01 5.7 42.2 63 -0.9 30.5
11:10 1017 30.03 847 25.01 5.5 42 62 -1.1 30
11:15 1017 30.03 847 25.01 5.3 41.5 62 -1.4 29.5
11:20 1017 30.03 846 24.98 5.2 41.4 62 -1.4 29.5
11:25 1017 30.03 846 24.98 5.8 42.4 59 -1.6 29.1
11:30 1017 30.03 846 24.98 5.9 42.6 59 -1.6 29.2
11:35 1017 30.03 846 24.98 5.8 42.5 58 -1.9 28.7
11:40 1017 30.03 846 24.98 6.7 44.1 53 -2.1 28.3
11:45 1017 30.03 846 24.98 7.6 45.6 51 -1.9 28.6
11:50 1017 30.03 846 24.98 7.5 45.4 55 -1 30.1
11:55 1017 30.03 846 24.98 6.8 44.3 54 -1.9 28.6
12:00 1017 30.03 846 24.98 7.9 46.2 51 -1.7 28.9
12:05 1017 30.03 846 24.98 8.3 46.9 51 -1.3 29.7
12:10 1017 30.03 846 24.98 8 46.3 49 -2.1 28.2
12:15 1017 30.03 846 24.98 8.6 47.4 48 -1.8 28.7
12:20 1017 30.03 846 24.98 8.9 48 45 -2.5 27.6
12:25 1017 30.03 846 24.98 9.4 48.9 44 -2.3 27.9
12:30 1017 30.03 846 24.98 9.4 48.8 44 -2.4 27.7
12:35 1017 30.03 846 24.98 9.6 49.3 42 -2.5 27.5
12:40 1017 30.03 846 24.98 9.4 48.8 45 -1.9 28.6
12:45 1017 30.03 846 24.98 9.4 49 43 -2.7 27.2
12:50 1017 30.03 846 24.98 10.1 50.2 43 -1.9 28.6
12:55 1017 30.03 846 24.98 10 49.9 41 -2.5 27.5
13:00 1017 30.03 846 24.98 9.8 49.6 46 -1.4 29.5
13:05 1017 30.03 846 24.98 9.6 49.3 43 -2.2 28
13:10 1017 30.03 846 24.98 9.9 49.8 43 -2.1 28.3
13:15 1016 30 846 24.98 10 50 44 -1.8 28.7
13:20 1016 30 846 24.98 10 50 44 -1.7 28.9
13:25 1016 30 846 24.98 10 50 45 -1.5 29.4
13:30 1016 30 845 24.95 10.3 50.5 42 -2 28.4
13:35 1016 30 845 24.95 9.9 49.8 45 -1.5 29.3
13:40 1016 30 845 24.95 9.8 49.7 45 -1.6 29.1
13:45 1016 30 845 24.95 10 49.9 45 -1.4 29.4
13:50 1016 30 845 24.95 9.6 49.3 46 -1.4 29.4
13:55 1016 30 845 24.95 9.5 49.1 46 -1.4 29.4
14:00 1016 30 845 24.95 9.7 49.4 46 -1.3 29.6
14:05 1016 30 845 24.95 9.7 49.5 46 -1.3 29.6
14:10 1015 29.97 845 24.95 9.8 49.7 46 -1.2 29.8
14:15 1015 29.97 845 24.95 9.8 49.7 46 -1.1 30
14:20 1015 29.97 844 24.92 9.5 49.1 48 -1 30.2
14:25 1015 29.97 844 24.92 9.1 48.4 49 -0.9 30.3
14:30 1015 29.97 844 24.92 9.3 48.7 48 -1.3 29.7
14:35 1015 29.97 844 24.92 9.8 49.7 47 -0.9 30.4
14:40 1015 29.97 844 24.92 9.9 49.9 46 -1.1 30.1
14:45 1015 29.97 844 24.92 10.2 50.4 46 -0.9 30.3
14:50 1014 29.94 844 24.92 10.1 50.2 46 -1 30.3
14:55 1015 29.97 844 24.92 9.9 49.8 46 -1.2 29.8
15:00 1014 29.94 844 24.92 10.2 50.3 46 -0.9 30.4
15:05 1014 29.94 844 24.92 10 50 47 -0.9 30.5
15:10 1014 29.94 844 24.92 9.7 49.5 48 -0.9 30.4
15:15 1014 29.94 843 24.89 9.5 49 49 -0.8 30.5
15:20 1014 29.94 844 24.92 9.4 48.9 48 -1 30.2
15:25 1014 29.94 844 24.92 9.2 48.6 49 -0.8 30.5
15:30 1014 29.94 843 24.89 9.2 48.5 50 -0.8 30.6
15:35 1014 29.94 843 24.89 9.2 48.5 50 -0.7 30.8
15:40 1014 29.94 843 24.89 9.3 48.7 50 -0.6 30.9
15:45 1014 29.94 843 24.89 9.3 48.7 50 -0.6 31
15:50 1014 29.94 843 24.89 9.2 48.6 50 -0.7 30.8
15:55 1014 29.94 843 24.89 9.3 48.7 50 -0.7 30.8
16:00 1014 29.94 843 24.89 9.3 48.7 50 -0.6 30.8
16:05 1014 29.94 843 24.89 9.1 48.3 51 -0.5 31
16:10 1014 29.94 843 24.89 9 48.3 51 -0.6 30.9
16:15 1014 29.94 843 24.89 9 48.1 51 -0.5 31
16:20 1014 29.94 843 24.89 8.9 48.1 51 -0.6 31
16:25 1014 29.94 843 24.89 9 48.1 51 -0.6 30.8
16:30 1014 29.94 843 24.89 8.9 48.1 51 -0.7 30.8
16:35 1014 29.94 843 24.89 9.1 48.3 50 -0.9 30.5
16:40 1014 29.94 843 24.89 9.1 48.4 50 -0.7 30.8
16:45 1014 29.94 843 24.89 9 48.2 49 -1.1 30.1
16:50 1014 29.94 843 24.89 8.8 47.8 50 -1 30.2
16:55 1014 29.94 843 24.89 8.6 47.5 50 -1.1 30
17:00 1014 29.94 843 24.89 8.5 47.3 51 -1 30.2
17:05 1014 29.94 843 24.89 8.4 47.1 51 -1.2 29.8
17:10 1014 29.94 843 24.89 8.4 47.2 51 -1.1 30
17:15 1013 29.91 843 24.89 8.7 47.6 52 -0.7 30.7
17:20 1013 29.91 843 24.89 8.6 47.5 53 -0.5 31.1
17:25 1013 29.91 842 24.86 8.5 47.3 54 -0.2 31.6
17:30 1013 29.91 842 24.86 8.4 47.2 53 -0.6 31
17:35 1013 29.91 842 24.86 8.3 46.9 53 -0.6 30.8
17:40 1013 29.91 842 24.86 8.2 46.8 54 -0.6 30.9
17:45 1013 29.91 842 24.86 8.3 47 56 0 32
17:50 1013 29.91 842 24.86 8.4 47 59 0.7 33.3
17:55 1013 29.91 842 24.86 8.4 47.2 55 -0.2 31.7
18:00 1013 29.91 842 24.86 8.3 47 60 1.1 34
18:05 1013 29.91 842 24.86 8.3 47 59 0.8 33.5
18:10 1013 29.91 842 24.86 8.2 46.7 59 0.7 33.2
18:15 1013 29.91 842 24.86 7.8 46 61 0.6 33.2
18:20 1013 29.91 842 24.86 7.8 46.1 62 0.9 33.7
18:25 1013 29.91 842 24.86 7.8 46.1 63 1.2 34.1
18:30 1013 29.91 842 24.86 7.8 46 62 0.9 33.7
18:35 1013 29.91 842 24.86 8.1 46.6 62 1.3 34.4
18:40 1013 29.91 842 24.86 8.3 47 59 0.7 33.3
18:45 1013 29.91 842 24.86 8.8 47.8 60 1.5 34.6
18:50 1013 29.91 842 24.86 9.1 48.4 60 1.8 35.3
18:55 1013 29.91 842 24.86 9.3 48.7 61 2.2 36
19:00 1012 29.88 842 24.86 9.2 48.5 63 2.5 36.5
19:05 1013 29.91 842 24.86 9 48.2 63 2.3 36.2
19:10 1013 29.91 842 24.86 9 48.2 65 2.9 37.2
19:15 1013 29.91 842 24.86 8.8 47.9 69 3.4 38.2
19:20 1013 29.91 842 24.86 8.7 47.6 70 3.6 38.4
19:25 1013 29.91 842 24.86 8.4 47.2 72 3.7 38.6
19:30 1013 29.91 842 24.86 8.3 46.9 74 3.8 38.9
19:35 1013 29.91 842 24.86 8.1 46.6 75 3.9 39.1
19:40 1013 29.91 842 24.86 8 46.4 74 3.7 38.7
19:45 1013 29.91 842 24.86 7.9 46.3 74 3.5 38.4
19:50 1013 29.91 842 24.86 7.9 46.3 74 3.6 38.4
19:55 1013 29.91 842 24.86 7.9 46.2 74 3.6 38.5
20:00 1013 29.91 842 24.86 7.9 46.3 71 3.1 37.6
20:05 1013 29.91 842 24.86 8.1 46.7 73 3.5 38.3
20:10 1013 29.91 842 24.86 8 46.4 73 3.5 38.3
20:15 1012 29.88 842 24.86 7.9 46.3 73 3.3 38
20:20 1012 29.88 842 24.86 7.9 46.3 73 3.4 38
20:25 1012 29.88 841 24.83 8 46.4 72 3.3 37.9
20:30 1012 29.88 841 24.83 8.2 46.7 71 3.2 37.8
20:35 1012 29.88 842 24.86 8.3 46.9 69 3.1 37.5
20:40 1012 29.88 842 24.86 8.4 47.1 70 3.2 37.8
20:45 1012 29.88 842 24.86 8.4 47.2 67 2.7 36.8
20:50 1012 29.88 842 24.86 8.6 47.4 67 2.8 37
20:55 1012 29.88 842 24.86 8.6 47.5 67 2.8 37
21:00 1012 29.88 842 24.86 8.7 47.7 68 3.2 37.7
21:05 1012 29.88 842 24.86 8.6 47.6 70 3.6 38.5
21:10 1012 29.88 842 24.86 8.4 47.2 68 2.9 37.2
21:15 1012 29.88 841 24.83 8.6 47.5 69 3.2 37.8
21:20 1012 29.88 841 24.83 8.6 47.5 68 3.1 37.6
21:25 1012 29.88 841 24.83 8.7 47.6 66 2.7 36.8
21:30 1012 29.88 841 24.83 8.8 47.8 65 2.5 36.5
21:35 1012 29.88 841 24.83 8.9 48 66 2.9 37.2
21:40 1012 29.88 841 24.83 8.9 48.1 66 3 37.5
21:45 1012 29.88 841 24.83 8.9 48 68 3.3 37.9
21:50 1012 29.88 841 24.83 8.8 47.8 66 2.9 37.3
21:55 1012 29.88 841 24.83 8.8 47.8 69 3.4 38.1
22:00 1012 29.88 841 24.83 8.6 47.6 73 4.1 39.4
22:05 1012 29.88 841 24.83 8 46.3 76 4 39.1
22:10 1012 29.88 841 24.83 7.9 46.3 76 4 39.2
22:15 1012 29.88 841 24.83 7.9 46.2 77 4.2 39.5
22:20 1012 29.88 841 24.83 7.9 46.3 75 3.7 38.7
22:25 1012 29.88 841 24.83 7.9 46.3 74 3.6 38.4
22:30 1012 29.88 841 24.83 8 46.5 72 3.4 38.1
22:35 1012 29.88 841 24.83 8.1 46.5 75 3.8 38.9
22:40 1012 29.88 841 24.83 8 46.5 74 3.8 38.8
22:45 1012 29.88 841 24.83 8 46.5 73 3.5 38.2
22:50 1012 29.88 841 24.83 8.2 46.7 74 3.7 38.7
22:55 1012 29.88 841 24.83 8.3 47 73 3.7 38.7
23:00 1011 29.85 841 24.83 8.2 46.8 73 3.7 38.7
23:05 1011 29.85 841 24.83 8.2 46.8 74 3.8 38.9
23:10 1011 29.85 841 24.83 8.1 46.6 74 3.8 38.9
23:15 1011 29.85 840 24.81 7.8 46.1 78 4.1 39.5
23:20 1011 29.85 840 24.81 7.4 45.4 75 3.4 38.1
23:25 1011 29.85 840 24.81 7.5 45.6 77 3.7 38.7
23:30 1011 29.85 840 24.81 7.6 45.7 75 3.4 38.1
23:35 1011 29.85 840 24.81 7.6 45.8 75 3.5 38.3
23:40 1011 29.85 840 24.81 7.8 46 76 3.9 39
23:45 1011 29.85 840 24.81 7.8 46.1 74 3.6 38.4
23:50 1011 29.85 840 24.81 8.1 46.5 74 3.7 38.6
23:55 1011 29.85 840 24.81 8.2 46.7 74 3.8 38.8
24:00 1011 29.85 840 24.81 8.1 46.5 75 3.9 38.9